Time;durP1;ratioP1;P1;durP2;ratioP2;P2;SDS_P1;SDS_P2;PMS_P1;PMS_P2;Temp;Humidity;BMP_temperature;BMP_pressure;BME280_temperature;BME280_humidity;BME280_pressure;Samples;Min_cycle;Max_cycle;Signal;HPM_P1;HPM_P2
2023/11/10 00:00:45;;;;;;;5.47;0.63;;;5.80;99.90;;;;;;5030760;28;20037;-67
2023/11/10 00:03:12;;;;;;;2.80;0.80;;;5.80;99.90;;;;;;5031852;28;20036;-67
2023/11/10 00:05:37;;;;;;;2.40;1.20;;;5.80;99.90;;;;;;5024493;28;20029;-68
2023/11/10 00:08:03;;;;;;;2.95;1.25;;;5.80;99.90;;;;;;5035865;28;20577;-68
2023/11/10 00:10:29;;;;;;;4.00;1.30;;;5.90;99.90;;;;;;5030881;28;20541;-67
2023/11/10 00:12:55;;;;;;;2.45;0.75;;;5.90;99.90;;;;;;5026265;28;20116;-68
2023/11/10 00:15:24;;;;;;;1.35;0.60;;;5.90;99.90;;;;;;5023695;28;20029;-67
2023/11/10 00:17:50;;;;;;;1.02;0.70;;;5.90;99.90;;;;;;5028677;28;20096;-68
2023/11/10 00:20:17;;;;;;;5.57;0.95;;;5.90;99.90;;;;;;5034500;28;20059;-68
2023/11/10 00:22:42;;;;;;;2.47;0.73;;;5.90;99.90;;;;;;5032648;28;20021;-68
2023/11/10 00:25:08;;;;;;;1.65;0.85;;;5.90;99.90;;;;;;5034145;28;20036;-67
2023/11/10 00:27:35;;;;;;;4.25;0.80;;;5.80;99.90;;;;;;5031163;28;20510;-68
2023/11/10 00:30:02;;;;;;;2.60;0.70;;;5.90;99.90;;;;;;5034488;28;20112;-68
2023/11/10 00:32:27;;;;;;;0.82;0.75;;;5.90;99.90;;;;;;5021687;28;20030;-68
2023/11/10 00:34:53;;;;;;;1.45;0.80;;;5.90;99.90;;;;;;5033684;28;20032;-68
2023/11/10 00:37:18;;;;;;;1.40;0.90;;;5.90;99.90;;;;;;5039603;28;20029;-67
2023/11/10 00:39:44;;;;;;;1.58;0.80;;;6.00;99.90;;;;;;5034703;28;20025;-67
2023/11/10 00:42:10;;;;;;;5.10;2.03;;;6.00;99.90;;;;;;5031665;28;20513;-67
2023/11/10 00:44:36;;;;;;;8.88;2.28;;;6.10;99.90;;;;;;5032561;28;20017;-68
2023/11/10 00:47:01;;;;;;;6.80;1.40;;;6.10;99.90;;;;;;5035154;28;20025;-68
2023/11/10 00:49:27;;;;;;;5.47;1.10;;;6.10;99.90;;;;;;5028890;28;20064;-66
2023/11/10 00:51:52;;;;;;;2.72;0.80;;;6.10;99.90;;;;;;5034240;28;20025;-67
2023/11/10 00:54:18;;;;;;;2.17;1.20;;;6.00;99.90;;;;;;5034043;28;20032;-67
2023/11/10 00:56:45;;;;;;;0.70;0.50;;;6.00;99.90;;;;;;5031265;28;20087;-67
2023/11/10 00:59:11;;;;;;;2.35;0.60;;;5.90;99.90;;;;;;5035176;28;20017;-66
2023/11/10 01:01:37;;;;;;;1.63;0.68;;;5.90;99.90;;;;;;5031684;28;20530;-67
2023/11/10 01:04:04;;;;;;;2.05;0.80;;;5.80;99.90;;;;;;5034465;28;20053;-67
2023/11/10 01:06:30;;;;;;;2.03;0.85;;;5.80;99.90;;;;;;5035868;28;20490;-67
2023/11/10 01:08:58;;;;;;;4.25;0.68;;;5.80;99.90;;;;;;5032953;28;20033;-67
2023/11/10 01:11:25;;;;;;;1.55;0.93;;;5.70;99.90;;;;;;5035097;28;20383;-67
2023/11/10 01:13:51;;;;;;;1.88;0.68;;;5.70;99.90;;;;;;5030682;28;20065;-66
2023/11/10 01:16:17;;;;;;;1.83;0.60;;;5.70;99.90;;;;;;5035454;28;20100;-67
2023/11/10 01:18:43;;;;;;;2.72;0.70;;;5.70;99.90;;;;;;5032044;28;20391;-67
2023/11/10 01:21:09;;;;;;;5.03;0.77;;;5.70;99.90;;;;;;5037270;28;20036;-66
2023/11/10 01:23:34;;;;;;;2.75;0.70;;;5.70;99.90;;;;;;5034822;28;20029;-67
2023/11/10 01:26:01;;;;;;;1.17;0.50;;;5.70;99.90;;;;;;5034565;28;20072;-67
2023/11/10 01:28:27;;;;;;;1.42;0.65;;;5.80;99.90;;;;;;5032099;28;20067;-66
2023/11/10 01:30:52;;;;;;;2.45;0.50;;;5.70;99.90;;;;;;5030844;28;20434;-67
2023/11/10 01:33:19;;;;;;;4.55;0.88;;;5.70;99.90;;;;;;5037391;28;20031;-66
2023/11/10 01:35:44;;;;;;;6.47;0.50;;;5.60;99.90;;;;;;5034364;28;20067;-67
2023/11/10 01:38:10;;;;;;;2.05;0.95;;;5.60;99.90;;;;;;5037447;28;20112;-67
2023/11/10 01:40:43;;;;;;;0.95;0.38;;;5.50;99.90;;;;;;5033928;28;20024;-67
2023/11/10 01:43:14;;;;;;;4.60;0.68;;;5.40;99.90;;;;;;5036203;28;20112;-66
2023/11/10 01:45:41;;;;;;;3.05;0.68;;;5.40;99.90;;;;;;5032308;28;20127;-67
2023/11/10 01:48:08;;;;;;;3.17;0.40;;;5.40;99.90;;;;;;5033051;28;20029;-67
2023/11/10 01:50:34;;;;;;;2.85;1.00;;;5.50;99.90;;;;;;5003724;28;20110;-67
2023/11/10 01:53:02;;;;;;;4.00;0.68;;;5.60;99.90;;;;;;5027686;28;20025;-68
2023/11/10 01:55:28;;;;;;;4.18;0.77;;;5.80;99.90;;;;;;5029692;28;20383;-67
2023/11/10 01:57:55;;;;;;;2.28;0.75;;;5.80;99.90;;;;;;5027748;28;20039;-67
2023/11/10 02:00:22;;;;;;;3.67;0.60;;;6.00;99.90;;;;;;5025507;28;20030;-67
2023/11/10 02:02:48;;;;;;;0.85;0.50;;;6.00;99.90;;;;;;5032597;28;20034;-67
2023/11/10 02:05:14;;;;;;;3.30;0.75;;;6.10;99.90;;;;;;5025649;28;20537;-68
2023/11/10 02:07:40;;;;;;;6.63;0.60;;;6.10;99.90;;;;;;5022761;28;20029;-67
2023/11/10 02:10:07;;;;;;;2.53;0.50;;;6.10;99.90;;;;;;5025847;28;20072;-66
2023/11/10 02:12:33;;;;;;;4.15;0.60;;;6.20;99.90;;;;;;5023385;28;20049;-67
2023/11/10 02:14:58;;;;;;;7.85;0.57;;;6.20;99.90;;;;;;5023273;28;20066;-67
2023/11/10 02:17:24;;;;;;;3.22;0.57;;;6.30;99.90;;;;;;5028019;28;20128;-68
2023/11/10 02:19:49;;;;;;;1.98;0.73;;;6.30;99.90;;;;;;5025121;28;20513;-67
2023/11/10 02:22:15;;;;;;;2.58;0.77;;;6.20;99.90;;;;;;5028493;28;20021;-67
2023/11/10 02:24:43;;;;;;;1.10;0.80;;;6.20;99.90;;;;;;5027681;28;20028;-67
2023/11/10 02:27:08;;;;;;;1.15;0.57;;;6.20;99.90;;;;;;5026565;28;20033;-67
2023/11/10 02:29:41;;;;;;;1.88;0.70;;;6.20;99.90;;;;;;5026030;28;20621;-67
2023/11/10 02:32:06;;;;;;;3.25;0.57;;;6.20;99.90;;;;;;5025499;28;20064;-67
2023/11/10 02:34:33;;;;;;;9.95;0.90;;;6.20;99.90;;;;;;5027117;28;20822;-67
2023/11/10 02:36:59;;;;;;;2.00;0.82;;;6.30;99.90;;;;;;5028069;28;20108;-67
2023/11/10 02:39:25;;;;;;;6.65;0.75;;;6.30;99.90;;;;;;5025257;28;20121;-67
2023/11/10 02:41:53;;;;;;;1.75;0.85;;;6.40;99.90;;;;;;5029090;28;20030;-67
2023/11/10 02:44:18;;;;;;;1.70;0.75;;;6.50;99.90;;;;;;5026068;28;20027;-67
2023/11/10 02:46:44;;;;;;;15.68;1.33;;;6.50;99.90;;;;;;5017849;28;20113;-68
2023/11/10 02:49:10;;;;;;;1.95;0.70;;;6.60;99.90;;;;;;5017768;28;20116;-68
2023/11/10 02:51:36;;;;;;;6.43;0.90;;;6.60;99.90;;;;;;5018727;28;20045;-67
2023/11/10 02:54:03;;;;;;;5.63;0.98;;;6.70;99.90;;;;;;5025885;28;20113;-67
2023/11/10 02:56:28;;;;;;;2.75;0.77;;;6.70;99.90;;;;;;5025524;28;20403;-68
2023/11/10 02:58:54;;;;;;;9.18;0.80;;;6.70;99.90;;;;;;5026001;28;20030;-68
2023/11/10 03:01:21;;;;;;;3.53;0.88;;;6.70;99.90;;;;;;5023651;28;20475;-67
2023/11/10 03:03:46;;;;;;;2.47;0.98;;;6.70;99.90;;;;;;5026832;28;20032;-68
2023/11/10 03:06:12;;;;;;;3.75;1.15;;;6.70;99.90;;;;;;5028186;28;20037;-67
2023/11/10 03:08:38;;;;;;;2.72;1.05;;;6.70;99.90;;;;;;5030901;28;20033;-67
2023/11/10 03:11:03;;;;;;;4.60;1.00;;;6.70;99.90;;;;;;5026529;28;20040;-67
2023/11/10 03:13:29;;;;;;;3.63;2.10;;;6.70;99.90;;;;;;5027769;28;20033;-67
2023/11/10 03:15:55;;;;;;;5.20;0.90;;;6.70;99.90;;;;;;5028171;28;20060;-67
2023/11/10 03:18:20;;;;;;;3.42;1.17;;;6.70;99.90;;;;;;5028217;28;20040;-67
2023/11/10 03:20:47;;;;;;;4.32;0.73;;;6.70;99.90;;;;;;5023529;28;20102;-67
2023/11/10 03:23:13;;;;;;;6.20;1.20;;;6.70;99.90;;;;;;5028110;28;20036;-67
2023/11/10 03:25:39;;;;;;;5.40;1.10;;;6.70;99.90;;;;;;5022898;28;20201;-67
2023/11/10 03:28:04;;;;;;;7.93;1.05;;;6.70;99.90;;;;;;5025596;28;20831;-67
2023/11/10 03:30:30;;;;;;;1.75;1.08;;;6.70;99.90;;;;;;5030653;28;20075;-67
2023/11/10 03:32:55;;;;;;;0.80;0.60;;;6.70;99.90;;;;;;5031428;28;20021;-67
2023/11/10 03:35:21;;;;;;;2.47;0.98;;;6.70;99.90;;;;;;5029282;28;20112;-67
2023/11/10 03:37:46;;;;;;;11.98;1.65;;;6.60;99.90;;;;;;5031482;28;20101;-67
2023/11/10 03:40:14;;;;;;;3.75;1.02;;;6.70;99.90;;;;;;5030434;28;20026;-67
2023/11/10 03:42:41;;;;;;;2.10;0.80;;;6.60;99.90;;;;;;5029209;28;20029;-67
2023/11/10 03:45:08;;;;;;;11.18;1.05;;;6.60;99.90;;;;;;5030792;28;20475;-67
2023/11/10 03:47:33;;;;;;;4.43;1.00;;;6.60;99.90;;;;;;5031304;28;20088;-67
2023/11/10 03:49:59;;;;;;;2.83;1.20;;;6.60;99.90;;;;;;5025598;28;20037;-67
2023/11/10 03:52:24;;;;;;;6.28;0.90;;;6.60;99.90;;;;;;5032022;28;20475;-67
2023/11/10 03:54:50;;;;;;;8.15;0.98;;;6.50;99.90;;;;;;5027786;28;20025;-67
2023/11/10 03:57:16;;;;;;;3.25;1.15;;;6.50;99.90;;;;;;5016708;28;20041;-67
2023/11/10 03:59:41;;;;;;;3.53;0.95;;;6.60;99.90;;;;;;5034885;28;20025;-67
2023/11/10 04:02:07;;;;;;;5.40;0.88;;;6.60;99.90;;;;;;5026705;28;20436;-67
2023/11/10 04:04:33;;;;;;;4.75;1.00;;;6.60;99.90;;;;;;5034728;28;21655;-67
2023/11/10 04:06:59;;;;;;;4.30;0.88;;;6.50;99.90;;;;;;5036160;28;20030;-67
2023/11/10 04:09:25;;;;;;;6.03;1.10;;;6.60;99.90;;;;;;5037060;28;20079;-67
2023/11/10 04:11:50;;;;;;;6.05;1.25;;;6.60;99.90;;;;;;5037121;28;20057;-67
2023/11/10 04:14:16;;;;;;;1.90;0.90;;;6.60;99.90;;;;;;5041828;28;20382;-67
2023/11/10 04:16:41;;;;;;;3.40;0.77;;;6.60;99.90;;;;;;5038469;28;20553;-67
2023/11/10 04:19:08;;;;;;;5.28;0.80;;;6.60;99.90;;;;;;5035684;28;20034;-67
2023/11/10 04:21:34;;;;;;;2.38;0.95;;;6.60;99.90;;;;;;5037254;28;20017;-67
2023/11/10 04:23:59;;;;;;;1.35;0.73;;;6.60;99.90;;;;;;5040831;28;20471;-67
2023/11/10 04:26:25;;;;;;;2.10;0.73;;;6.60;99.90;;;;;;5039078;28;20029;-67
2023/11/10 04:28:50;;;;;;;4.63;1.00;;;6.60;99.90;;;;;;5041318;28;20033;-66
2023/11/10 04:31:17;;;;;;;2.53;0.80;;;6.60;99.90;;;;;;5040494;28;20117;-67
2023/11/10 04:33:46;;;;;;;4.10;0.88;;;6.70;99.90;;;;;;5036740;28;20038;-67
2023/11/10 04:36:12;;;;;;;4.18;1.27;;;6.70;99.90;;;;;;5040641;28;20584;-67
2023/11/10 04:38:44;;;;;;;1.67;0.70;;;6.70;99.90;;;;;;5038928;28;20609;-67
2023/11/10 04:41:10;;;;;;;11.00;1.20;;;6.60;99.90;;;;;;5041717;28;20029;-67
2023/11/10 04:43:36;;;;;;;2.78;0.57;;;6.70;99.90;;;;;;5034364;28;20052;-67
2023/11/10 04:46:05;;;;;;;9.20;1.67;;;6.70;99.90;;;;;;5035545;28;20107;-67
2023/11/10 04:48:31;;;;;;;2.95;1.10;;;6.70;99.90;;;;;;5034033;28;20037;-67
2023/11/10 04:50:56;;;;;;;10.85;1.45;;;6.70;99.90;;;;;;5027957;28;20061;-67
2023/11/10 04:53:22;;;;;;;6.13;0.90;;;6.70;99.90;;;;;;5035158;28;20124;-67
2023/11/10 04:55:48;;;;;;;4.97;0.90;;;6.70;99.90;;;;;;5031442;28;20025;-67
2023/11/10 04:58:14;;;;;;;4.50;1.02;;;6.70;99.90;;;;;;5036141;28;20048;-67
2023/11/10 05:00:40;;;;;;;2.08;0.90;;;6.70;99.90;;;;;;5033079;28;20477;-67
2023/11/10 05:03:06;;;;;;;2.40;0.90;;;6.80;99.90;;;;;;5033694;28;20021;-67
2023/11/10 05:05:32;;;;;;;2.08;0.98;;;6.70;99.90;;;;;;5033676;28;20088;-67
2023/11/10 05:07:59;;;;;;;3.72;0.70;;;6.70;99.90;;;;;;5031351;28;20025;-67
2023/11/10 05:10:25;;;;;;;8.02;0.88;;;6.70;99.90;;;;;;5036472;28;20021;-67
2023/11/10 05:12:51;;;;;;;3.40;1.10;;;6.70;99.90;;;;;;5028403;28;20025;-67
2023/11/10 05:15:17;;;;;;;5.35;1.05;;;6.70;99.90;;;;;;5031880;28;20028;-67
2023/11/10 05:17:43;;;;;;;4.32;1.00;;;6.70;99.90;;;;;;5031360;28;20116;-67
2023/11/10 05:20:13;;;;;;;5.65;1.58;;;6.70;99.90;;;;;;5034321;28;20040;-67
2023/11/10 05:22:41;;;;;;;7.18;1.77;;;6.70;99.90;;;;;;5040348;28;20413;-68
2023/11/10 05:25:10;;;;;;;2.53;0.65;;;6.70;99.90;;;;;;5035844;28;20028;-67
2023/11/10 05:27:36;;;;;;;2.92;0.93;;;6.70;99.90;;;;;;5028348;28;20398;-67
2023/11/10 05:30:02;;;;;;;1.88;0.98;;;6.70;99.90;;;;;;5030823;28;20030;-67
2023/11/10 05:32:28;;;;;;;2.90;1.10;;;6.70;99.90;;;;;;5030488;28;20513;-67
2023/11/10 05:34:54;;;;;;;5.88;1.08;;;6.70;99.90;;;;;;5037016;28;20033;-67
2023/11/10 05:37:24;;;;;;;6.00;1.20;;;6.70;99.90;;;;;;5035719;28;20025;-68
2023/11/10 05:39:52;;;;;;;6.20;1.40;;;6.70;99.90;;;;;;5039266;28;20025;-68
2023/11/10 05:42:21;;;;;;;2.40;0.98;;;6.70;99.90;;;;;;5037244;28;20037;-67
2023/11/10 05:44:48;;;;;;;4.20;0.88;;;6.70;99.90;;;;;;5031060;28;20502;-68
2023/11/10 05:47:14;;;;;;;3.72;0.80;;;6.70;99.90;;;;;;5029892;28;20532;-67
2023/11/10 05:49:41;;;;;;;3.58;1.00;;;6.70;99.90;;;;;;5009106;28;20034;-68
2023/11/10 05:52:11;;;;;;;2.60;0.88;;;6.70;99.90;;;;;;5034421;28;20017;-68
2023/11/10 05:54:39;;;;;;;2.85;0.80;;;6.70;99.90;;;;;;5031305;28;20025;-67
2023/11/10 05:57:05;;;;;;;10.65;0.95;;;6.70;99.90;;;;;;5028794;28;20030;-67
2023/11/10 05:59:32;;;;;;;4.93;0.95;;;6.70;99.90;;;;;;5034466;28;20541;-68
2023/11/10 06:01:58;;;;;;;7.82;1.05;;;6.70;99.90;;;;;;5029616;28;20414;-67
2023/11/10 06:04:24;;;;;;;2.35;0.70;;;6.70;99.90;;;;;;5041123;28;20533;-67
2023/11/10 06:06:50;;;;;;;7.30;0.98;;;6.80;99.90;;;;;;5030329;28;20022;-66
2023/11/10 06:09:16;;;;;;;5.13;1.20;;;6.80;99.90;;;;;;5039076;28;20025;-67
2023/11/10 06:11:44;;;;;;;2.72;0.77;;;6.80;99.90;;;;;;5026634;28;20025;-67
2023/11/10 06:14:10;;;;;;;5.40;1.35;;;6.80;99.90;;;;;;5031349;28;20039;-66
2023/11/10 06:16:38;;;;;;;6.32;0.70;;;6.80;99.90;;;;;;5031671;28;20398;-67
2023/11/10 06:19:04;;;;;;;4.18;1.00;;;6.80;99.90;;;;;;5031471;28;20025;-67
2023/11/10 06:21:30;;;;;;;3.33;0.50;;;6.80;99.90;;;;;;5037968;28;20024;-67
2023/11/10 06:23:56;;;;;;;6.35;1.08;;;6.80;99.90;;;;;;5040225;28;20021;-67
2023/11/10 06:26:21;;;;;;;4.82;1.67;;;6.80;99.90;;;;;;5027255;28;20102;-67
2023/11/10 06:28:47;;;;;;;3.92;0.70;;;6.80;99.90;;;;;;5034762;28;20037;-68
2023/11/10 06:31:14;;;;;;;6.53;1.15;;;6.70;99.90;;;;;;5036336;28;20044;-69
2023/11/10 06:33:41;;;;;;;4.97;1.02;;;6.70;99.90;;;;;;5034080;28;20522;-70
2023/11/10 06:36:07;;;;;;;4.97;0.70;;;6.70;99.90;;;;;;5038593;28;20039;-68
2023/11/10 06:38:33;;;;;;;2.50;0.82;;;6.80;99.90;;;;;;5036314;28;20083;-69
2023/11/10 06:40:59;;;;;;;2.38;0.75;;;6.80;99.90;;;;;;5029668;28;20025;-68
2023/11/10 06:43:25;;;;;;;1.48;0.60;;;6.80;99.90;;;;;;5040752;28;20033;-68
2023/11/10 06:45:51;;;;;;;3.95;0.77;;;6.80;99.90;;;;;;5033033;28;20087;-68
2023/11/10 06:48:16;;;;;;;2.25;0.88;;;6.80;99.90;;;;;;5034263;28;20078;-68
2023/11/10 06:50:42;;;;;;;2.42;0.90;;;6.80;99.90;;;;;;5005079;28;20069;-68
2023/11/10 06:53:11;;;;;;;6.75;1.65;;;6.80;99.90;;;;;;5039399;28;20029;-69
2023/11/10 06:55:37;;;;;;;6.93;1.00;;;6.80;99.90;;;;;;5032508;28;20108;-67
2023/11/10 06:58:03;;;;;;;3.00;0.70;;;6.80;99.90;;;;;;5041239;28;20068;-68
2023/11/10 07:00:32;;;;;;;4.95;0.95;;;6.90;99.90;;;;;;5031249;28;20498;-68
2023/11/10 07:02:59;;;;;;;4.20;0.88;;;6.90;99.90;;;;;;5035851;28;20394;-68
2023/11/10 07:05:26;;;;;;;2.72;0.60;;;6.90;99.90;;;;;;5037743;28;20024;-69
2023/11/10 07:07:52;;;;;;;2.38;0.85;;;6.90;99.90;;;;;;5035737;28;20032;-69
2023/11/10 07:10:18;;;;;;;4.80;1.15;;;6.90;99.90;;;;;;5045830;28;20033;-69
2023/11/10 07:12:44;;;;;;;3.08;1.13;;;7.00;99.90;;;;;;5037578;28;20039;-68
2023/11/10 07:15:10;;;;;;;2.08;0.82;;;6.90;99.90;;;;;;5038093;28;20034;-68
2023/11/10 07:17:36;;;;;;;3.50;0.73;;;6.90;99.90;;;;;;5037282;28;20036;-67
2023/11/10 07:20:05;;;;;;;2.90;1.00;;;6.90;99.90;;;;;;5040284;28;20029;-67
2023/11/10 07:22:31;;;;;;;6.45;0.70;;;7.00;99.90;;;;;;5039838;28;20024;-66
2023/11/10 07:24:56;;;;;;;3.80;0.80;;;7.00;99.90;;;;;;5041272;28;20438;-66
2023/11/10 07:27:22;;;;;;;5.50;0.90;;;7.00;99.90;;;;;;5040705;28;20029;-67
2023/11/10 07:29:47;;;;;;;2.28;0.90;;;7.00;99.90;;;;;;5045168;28;20032;-67
2023/11/10 07:32:13;;;;;;;4.28;1.42;;;7.10;99.90;;;;;;5037257;28;20608;-68
2023/11/10 07:34:39;;;;;;;6.10;0.88;;;7.10;99.90;;;;;;5037969;28;20383;-67
2023/11/10 07:37:05;;;;;;;3.40;0.80;;;7.20;99.90;;;;;;5040726;28;20029;-67
2023/11/10 07:39:31;;;;;;;5.47;1.08;;;7.20;99.90;;;;;;5040677;28;20075;-67
2023/11/10 07:41:57;;;;;;;2.60;0.93;;;7.30;99.90;;;;;;5044302;28;20022;-67
2023/11/10 07:44:23;;;;;;;6.32;1.10;;;7.20;99.90;;;;;;5032211;28;20026;-67
2023/11/10 07:46:48;;;;;;;3.92;0.98;;;7.30;99.90;;;;;;5025843;28;20487;-67
2023/11/10 07:49:14;;;;;;;2.28;0.98;;;7.40;99.90;;;;;;5011165;28;20084;-67
2023/11/10 07:51:40;;;;;;;3.95;0.80;;;7.40;99.90;;;;;;5042899;28;20116;-67
2023/11/10 07:54:06;;;;;;;4.47;1.23;;;7.50;99.90;;;;;;5043141;28;20104;-68
2023/11/10 07:56:31;;;;;;;3.83;1.13;;;7.60;99.90;;;;;;5036086;28;20120;-68
2023/11/10 07:58:57;;;;;;;4.97;0.90;;;7.70;99.90;;;;;;5032136;28;20124;-67
2023/11/10 08:01:23;;;;;;;5.85;1.23;;;7.80;99.90;;;;;;5038428;28;20025;-67
2023/11/10 08:03:49;;;;;;;7.10;1.20;;;7.90;99.90;;;;;;5043943;28;20024;-67
2023/11/10 08:06:15;;;;;;;5.25;2.05;;;8.00;99.90;;;;;;5028355;28;20025;-67
2023/11/10 08:08:41;;;;;;;5.47;1.35;;;8.10;99.90;;;;;;5042854;28;20079;-68
2023/11/10 08:11:11;;;;;;;3.20;1.00;;;8.20;99.90;;;;;;5040144;28;20049;-67
2023/11/10 08:13:39;;;;;;;3.40;1.13;;;8.20;99.90;;;;;;5029575;28;20026;-66
2023/11/10 08:16:06;;;;;;;4.30;1.08;;;8.20;99.90;;;;;;5028694;28;20121;-68
2023/11/10 08:18:32;;;;;;;5.15;1.17;;;8.10;99.90;;;;;;5027518;28;20087;-69
2023/11/10 08:20:57;;;;;;;3.50;1.40;;;8.10;99.90;;;;;;5031827;28;20033;-68
2023/11/10 08:23:23;;;;;;;8.27;1.10;;;8.10;99.90;;;;;;5037152;28;20022;-67
2023/11/10 08:25:51;;;;;;;4.57;1.20;;;8.10;99.90;;;;;;5037938;28;20026;-67
2023/11/10 08:28:17;;;;;;;3.53;0.90;;;8.10;99.90;;;;;;5031083;28;20403;-67
2023/11/10 08:30:43;;;;;;;3.72;1.05;;;8.20;99.90;;;;;;5039361;28;20418;-67
2023/11/10 08:33:10;;;;;;;2.15;1.00;;;8.20;99.90;;;;;;5033183;28;20029;-67
2023/11/10 08:35:37;;;;;;;6.50;1.02;;;8.30;99.90;;;;;;5038695;28;20029;-67
2023/11/10 08:38:03;;;;;;;4.18;1.00;;;8.40;99.90;;;;;;5036235;28;20022;-68
2023/11/10 08:40:29;;;;;;;1.50;0.90;;;8.50;99.90;;;;;;5042087;28;20024;-68
2023/11/10 08:42:55;;;;;;;1.30;0.63;;;8.70;99.90;;;;;;5035797;28;20021;-67
2023/11/10 08:45:22;;;;;;;1.95;0.70;;;8.80;99.90;;;;;;5032796;28;20076;-69
2023/11/10 08:47:48;;;;;;;1.40;0.70;;;8.80;99.90;;;;;;5034220;28;20117;-68
2023/11/10 08:50:14;;;;;;;1.20;0.65;;;9.00;99.90;;;;;;5001278;28;20033;-67
2023/11/10 08:52:41;;;;;;;3.92;2.13;;;9.00;99.90;;;;;;5033030;28;20024;-67
2023/11/10 08:55:16;;;;;;;3.67;0.95;;;9.20;99.90;;;;;;5025869;28;20025;-67
2023/11/10 08:57:42;;;;;;;9.15;1.27;;;9.20;99.90;;;;;;5028826;28;20467;-66
2023/11/10 09:00:09;;;;;;;1.65;0.82;;;9.20;99.90;;;;;;5031901;28;20029;-67
2023/11/10 09:02:38;;;;;;;1.48;0.70;;;9.30;99.90;;;;;;5029519;28;20028;-67
2023/11/10 09:05:10;;;;;;;1.50;0.75;;;9.20;99.90;;;;;;5032624;28;20026;-68
2023/11/10 09:07:40;;;;;;;5.88;0.75;;;9.20;99.90;;;;;;5039798;28;20490;-71
2023/11/10 09:10:06;;;;;;;4.47;1.00;;;9.30;99.90;;;;;;5037473;28;20060;-67
2023/11/10 09:12:33;;;;;;;3.63;0.95;;;9.40;99.90;;;;;;5034556;28;20430;-66
2023/11/10 09:15:04;;;;;;;2.67;1.30;;;9.40;99.90;;;;;;5039073;28;20013;-66
2023/11/10 09:17:31;;;;;;;8.68;1.73;;;9.40;99.90;;;;;;5032378;28;20051;-67
2023/11/10 09:19:57;;;;;;;3.08;1.25;;;9.30;99.90;;;;;;5038304;28;20036;-67
2023/11/10 09:22:22;;;;;;;2.38;0.68;;;9.30;99.90;;;;;;5035277;28;20030;-68
2023/11/10 09:24:49;;;;;;;7.40;1.45;;;9.30;99.90;;;;;;5033389;28;20053;-68
2023/11/10 09:27:15;;;;;;;4.13;1.15;;;9.50;99.90;;;;;;5036760;28;20035;-68
2023/11/10 09:29:41;;;;;;;2.63;1.23;;;9.80;99.90;;;;;;5041505;28;20028;-68
2023/11/10 09:32:10;;;;;;;3.20;0.80;;;9.90;99.90;;;;;;5035099;28;20132;-67
2023/11/10 09:34:37;;;;;;;2.28;1.00;;;9.90;99.90;;;;;;5030909;28;20113;-68
2023/11/10 09:37:04;;;;;;;2.55;1.00;;;10.00;99.90;;;;;;5030626;28;20025;-67
2023/11/10 09:39:29;;;;;;;3.28;1.30;;;10.00;99.90;;;;;;5026402;28;20021;-67
2023/11/10 09:41:59;;;;;;;3.28;0.85;;;10.00;99.90;;;;;;5035822;28;20026;-68
2023/11/10 09:44:25;;;;;;;3.35;1.15;;;10.00;99.90;;;;;;5036787;28;20021;-68
2023/11/10 09:46:51;;;;;;;1.52;1.00;;;10.00;99.90;;;;;;5040369;28;20021;-67
2023/11/10 09:49:17;;;;;;;5.00;0.88;;;10.00;99.90;;;;;;5014144;28;20047;-67
2023/11/10 09:51:45;;;;;;;2.28;0.90;;;10.00;99.90;;;;;;5041024;28;20094;-68
2023/11/10 09:54:11;;;;;;;1.90;0.95;;;10.10;99.90;;;;;;5026113;28;20032;-67
2023/11/10 09:56:39;;;;;;;3.15;0.93;;;10.10;99.90;;;;;;5038658;28;20037;-68
2023/11/10 09:59:07;;;;;;;2.28;0.85;;;10.10;99.90;;;;;;5029554;28;20049;-68
2023/11/10 10:01:33;;;;;;;1.15;0.80;;;10.00;99.90;;;;;;5030722;28;20051;-68
2023/11/10 10:03:58;;;;;;;1.92;0.75;;;10.00;99.90;;;;;;5041477;28;20029;-68
2023/11/10 10:06:25;;;;;;;3.33;1.13;;;10.00;99.90;;;;;;5037729;28;20033;-67
2023/11/10 10:08:57;;;;;;;3.28;0.70;;;9.90;99.90;;;;;;5043156;28;20033;-67
2023/11/10 10:11:23;;;;;;;3.55;1.38;;;9.80;99.90;;;;;;5041281;28;20033;-67
2023/11/10 10:13:48;;;;;;;0.95;0.60;;;9.80;99.90;;;;;;5037815;28;20037;-68
2023/11/10 10:16:15;;;;;;;7.80;1.25;;;9.80;99.90;;;;;;5037305;28;20087;-68
2023/11/10 10:18:44;;;;;;;3.20;0.80;;;9.80;99.90;;;;;;5034253;28;20033;-67
2023/11/10 10:21:11;;;;;;;3.72;1.35;;;9.80;99.90;;;;;;5032556;28;20048;-67
2023/11/10 10:23:36;;;;;;;4.40;0.93;;;9.90;99.90;;;;;;5025598;28;20021;-68
2023/11/10 10:26:09;;;;;;;1.55;0.73;;;10.10;99.90;;;;;;5025904;28;20044;-68
2023/11/10 10:28:35;;;;;;;5.00;1.10;;;10.20;99.90;;;;;;5039244;28;20384;-67
2023/11/10 10:31:02;;;;;;;7.90;2.05;;;10.30;99.90;;;;;;5041504;28;20036;-67
2023/11/10 10:33:28;;;;;;;10.20;3.88;;;10.40;99.90;;;;;;5038964;28;20048;-68
2023/11/10 10:35:53;;;;;;;57.15;31.42;;;10.30;99.90;;;;;;5041065;28;20491;-67
2023/11/10 10:38:22;;;;;;;44.15;25.50;;;10.20;99.90;;;;;;5039029;28;20033;-68
2023/11/10 10:40:55;;;;;;;13.73;8.88;;;10.20;99.90;;;;;;5034708;28;20025;-67
2023/11/10 10:43:21;;;;;;;2.35;1.58;;;10.20;99.90;;;;;;5043254;28;20035;-68
2023/11/10 10:45:47;;;;;;;2.00;1.10;;;10.10;99.90;;;;;;5037843;28;20429;-67
2023/11/10 10:48:15;;;;;;;5.28;1.00;;;10.00;99.90;;;;;;5043649;28;20021;-66
2023/11/10 10:50:43;;;;;;;28.77;10.35;;;10.10;99.90;;;;;;5012825;28;20049;-67
2023/11/10 10:53:10;;;;;;;8.10;1.60;;;10.20;99.90;;;;;;5040890;28;20139;-67
2023/11/10 10:55:39;;;;;;;16.90;5.57;;;10.20;99.90;;;;;;5037720;28;20044;-67
2023/11/10 10:58:08;;;;;;;12.95;5.45;;;10.20;99.90;;;;;;5043456;28;20375;-67
2023/11/10 11:00:34;;;;;;;5.80;2.60;;;10.30;99.90;;;;;;5046429;28;20020;-68
2023/11/10 11:03:38;;;;;;;9.30;2.65;;;10.30;99.90;;;;;;5033011;28;20036;-68
2023/11/10 11:06:09;;;;;;;;;;;10.20;99.90;;;;;;4990665;28;20035;-68
2023/11/10 11:08:57;;;;;;;37.83;12.57;;;10.10;99.90;;;;;;5032705;28;19935;-68
2023/11/10 11:11:22;;;;;;;34.88;12.63;;;10.40;99.90;;;;;;5027283;28;20033;-68
2023/11/10 11:14:21;;;;;;;20.70;7.22;;;10.50;99.90;;;;;;5038465;28;20079;-68
2023/11/10 11:17:01;;;;;;;5.65;2.83;;;10.40;99.90;;;;;;5036441;28;20029;-67
2023/11/10 11:19:30;;;;;;;2.92;1.27;;;10.30;99.90;;;;;;5028632;28;20036;-66
2023/11/10 11:21:57;;;;;;;4.57;1.75;;;10.30;99.90;;;;;;5025670;28;20372;-67
2023/11/10 11:24:24;;;;;;;2.17;0.77;;;10.30;99.90;;;;;;5037201;28;20392;-68
2023/11/10 11:27:06;;;;;;;5.88;1.05;;;10.20;99.90;;;;;;5032732;28;20109;-68
2023/11/10 11:29:39;;;;;;;4.25;0.88;;;10.20;99.90;;;;;;5038942;28;20037;-69
2023/11/10 11:32:10;;;;;;;2.17;1.00;;;10.20;99.90;;;;;;5028478;28;20112;-68
2023/11/10 11:34:36;;;;;;;6.60;1.00;;;10.10;99.90;;;;;;5024500;28;20083;-67
2023/11/10 11:37:05;;;;;;;4.57;1.17;;;10.00;99.90;;;;;;5029690;28;20184;-68
2023/11/10 11:39:34;;;;;;;3.25;1.40;;;9.90;99.90;;;;;;5040175;28;20038;-68
2023/11/10 11:42:08;;;;;;;2.92;1.00;;;9.90;99.90;;;;;;5028954;28;20032;-68
2023/11/10 11:44:35;;;;;;;4.60;0.90;;;10.00;99.90;;;;;;5043910;28;20520;-67
2023/11/10 11:47:09;;;;;;;7.55;1.42;;;10.00;99.90;;;;;;5040787;28;20033;-68
2023/11/10 11:49:36;;;;;;;4.00;1.00;;;10.00;99.90;;;;;;5013794;28;20430;-67
2023/11/10 11:52:03;;;;;;;4.45;0.90;;;10.00;99.90;;;;;;5048174;28;20021;-67
2023/11/10 11:54:29;;;;;;;7.13;0.90;;;10.10;99.90;;;;;;5040979;28;20043;-67
2023/11/10 11:56:58;;;;;;;3.78;1.23;;;10.20;99.90;;;;;;5041200;28;20021;-67
2023/11/10 11:59:24;;;;;;;6.07;1.40;;;10.20;99.90;;;;;;5030586;28;20055;-67
2023/11/10 12:01:51;;;;;;;4.68;0.93;;;10.10;99.90;;;;;;5022698;28;20094;-68
2023/11/10 12:04:16;;;;;;;4.32;0.88;;;10.00;99.90;;;;;;5029470;28;20036;-67
2023/11/10 12:06:42;;;;;;;10.18;2.47;;;10.00;99.90;;;;;;5032742;28;20411;-67
2023/11/10 12:09:08;;;;;;;2.28;1.02;;;10.00;99.90;;;;;;5023515;28;20040;-67
2023/11/10 12:11:36;;;;;;;5.55;2.00;;;9.90;99.90;;;;;;5022729;28;20041;-67
2023/11/10 12:14:05;;;;;;;4.18;1.25;;;9.90;99.90;;;;;;5043475;28;20116;-68
2023/11/10 12:16:38;;;;;;;9.68;1.70;;;9.90;99.90;;;;;;5040862;28;20032;-67
2023/11/10 12:19:04;;;;;;;4.00;1.77;;;9.90;99.90;;;;;;5024289;28;20022;-68
2023/11/10 12:21:33;;;;;;;4.20;1.63;;;10.00;99.90;;;;;;5046135;28;20023;-67
2023/11/10 12:23:59;;;;;;;4.78;1.50;;;10.00;99.90;;;;;;5023146;28;20036;-68
2023/11/10 12:26:33;;;;;;;4.45;2.35;;;9.90;99.90;;;;;;5044610;28;20033;-66
2023/11/10 12:29:01;;;;;;;5.45;1.20;;;10.00;99.90;;;;;;5048761;28;20029;-67
2023/11/10 12:31:27;;;;;;;5.10;1.90;;;10.00;99.90;;;;;;5027007;28;20067;-68
2023/11/10 12:33:57;;;;;;;8.80;1.05;;;10.00;99.90;;;;;;5041048;28;20479;-67
2023/11/10 12:36:22;;;;;;;8.15;1.98;;;9.90;99.90;;;;;;5049987;28;20426;-67
2023/11/10 12:38:50;;;;;;;5.85;1.63;;;9.90;99.90;;;;;;5044192;28;20036;-68
2023/11/10 12:41:16;;;;;;;8.65;1.63;;;9.90;99.90;;;;;;5044651;28;20024;-67
2023/11/10 12:43:43;;;;;;;2.55;1.35;;;9.90;99.90;;;;;;5043811;28;20032;-67
2023/11/10 12:46:12;;;;;;;3.03;1.52;;;9.90;99.90;;;;;;5049696;28;20072;-68
2023/11/10 12:48:41;;;;;;;3.25;1.10;;;9.90;99.90;;;;;;5033934;28;20091;-68
2023/11/10 12:51:11;;;;;;;2.92;1.10;;;9.80;99.90;;;;;;5021485;28;20048;-67
2023/11/10 12:53:37;;;;;;;3.33;0.80;;;9.80;99.90;;;;;;5036658;28;20376;-68